sensor_id;sensor_type;location;lat;lon;timestamp;temperature;humidity
22852;DHT22;11592;45.460;9.240;2023-07-13T00:01:54;22.10;99.90
22852;DHT22;11592;45.460;9.240;2023-07-13T03:36:31;22.40;99.90
22852;DHT22;11592;45.460;9.240;2023-07-13T03:39:01;22.30;99.90
22852;DHT22;11592;45.460;9.240;2023-07-13T03:41:29;22.30;99.90
22852;DHT22;11592;45.460;9.240;2023-07-13T03:43:58;22.30;99.90
22852;DHT22;11592;45.460;9.240;2023-07-13T03:46:25;22.30;99.90
22852;DHT22;11592;45.460;9.240;2023-07-13T03:48:51;22.40;99.90
22852;DHT22;11592;45.460;9.240;2023-07-13T03:51:19;22.40;99.90
22852;DHT22;11592;45.460;9.240;2023-07-13T03:53:47;22.40;99.90
22852;DHT22;11592;45.460;9.240;2023-07-13T03:56:16;22.50;99.90
22852;DHT22;11592;45.460;9.240;2023-07-13T03:58:44;22.40;99.90
22852;DHT22;11592;45.460;9.240;2023-07-13T04:01:13;22.30;99.90
22852;DHT22;11592;45.460;9.240;2023-07-13T04:03:40;22.40;99.90
22852;DHT22;11592;45.460;9.240;2023-07-13T04:06:23;22.50;99.90
22852;DHT22;11592;45.460;9.240;2023-07-13T04:08:56;22.60;99.90
22852;DHT22;11592;45.460;9.240;2023-07-13T04:11:26;22.60;99.90
22852;DHT22;11592;45.460;9.240;2023-07-13T04:13:54;22.60;99.90
22852;DHT22;11592;45.460;9.240;2023-07-13T04:16:21;22.60;99.90
22852;DHT22;11592;45.460;9.240;2023-07-13T04:18:49;22.60;99.90
22852;DHT22;11592;45.460;9.240;2023-07-13T04:21:16;22.70;99.90
22852;DHT22;11592;45.460;9.240;2023-07-13T04:23:43;22.70;99.90
22852;DHT22;11592;45.460;9.240;2023-07-13T04:26:10;22.80;99.90
22852;DHT22;11592;45.460;9.240;2023-07-13T04:28:38;22.70;99.90
22852;DHT22;11592;45.460;9.240;2023-07-13T04:31:05;22.70;99.90
22852;DHT22;11592;45.460;9.240;2023-07-13T04:33:32;22.70;99.90
22852;DHT22;11592;45.460;9.240;2023-07-13T04:35:59;22.80;99.90
22852;DHT22;11592;45.460;9.240;2023-07-13T04:38:28;22.80;99.90
22852;DHT22;11592;45.460;9.240;2023-07-13T04:41:00;22.80;99.90
22852;DHT22;11592;45.460;9.240;2023-07-13T04:43:29;22.80;99.90
22852;DHT22;11592;45.460;9.240;2023-07-13T04:45:56;22.90;99.90
22852;DHT22;11592;45.460;9.240;2023-07-13T04:48:24;23.00;99.90
22852;DHT22;11592;45.460;9.240;2023-07-13T04:50:55;23.00;99.90
22852;DHT22;11592;45.460;9.240;2023-07-13T04:53:23;22.90;99.90
22852;DHT22;11592;45.460;9.240;2023-07-13T04:55:50;23.00;99.90
22852;DHT22;11592;45.460;9.240;2023-07-13T04:58:17;23.00;99.90
22852;DHT22;11592;45.460;9.240;2023-07-13T05:00:45;23.00;99.90
22852;DHT22;11592;45.460;9.240;2023-07-13T05:03:11;23.10;99.90
22852;DHT22;11592;45.460;9.240;2023-07-13T05:05:38;23.10;99.90
22852;DHT22;11592;45.460;9.240;2023-07-13T05:08:05;23.20;99.90
22852;DHT22;11592;45.460;9.240;2023-07-13T05:10:34;23.30;99.90
22852;DHT22;11592;45.460;9.240;2023-07-13T05:13:01;23.40;99.90
22852;DHT22;11592;45.460;9.240;2023-07-13T05:15:29;23.30;99.90
22852;DHT22;11592;45.460;9.240;2023-07-13T05:17:56;23.50;99.90
22852;DHT22;11592;45.460;9.240;2023-07-13T05:20:23;23.60;99.90
22852;DHT22;11592;45.460;9.240;2023-07-13T05:22:50;23.60;99.90
22852;DHT22;11592;45.460;9.240;2023-07-13T05:25:17;23.60;99.90
22852;DHT22;11592;45.460;9.240;2023-07-13T05:27:44;23.50;99.90
22852;DHT22;11592;45.460;9.240;2023-07-13T05:30:12;23.50;99.90
22852;DHT22;11592;45.460;9.240;2023-07-13T05:32:39;23.50;99.90
22852;DHT22;11592;45.460;9.240;2023-07-13T05:35:07;23.60;99.90
22852;DHT22;11592;45.460;9.240;2023-07-13T05:37:34;23.60;99.90
22852;DHT22;11592;45.460;9.240;2023-07-13T05:40:01;23.70;99.90
22852;DHT22;11592;45.460;9.240;2023-07-13T05:42:28;23.80;99.90
22852;DHT22;11592;45.460;9.240;2023-07-13T05:44:55;23.90;99.90
22852;DHT22;11592;45.460;9.240;2023-07-13T05:47:22;24.00;99.90
22852;DHT22;11592;45.460;9.240;2023-07-13T05:49:49;24.10;99.90
22852;DHT22;11592;45.460;9.240;2023-07-13T05:52:16;24.30;99.90
22852;DHT22;11592;45.460;9.240;2023-07-13T05:54:42;24.40;99.90
22852;DHT22;11592;45.460;9.240;2023-07-13T05:57:09;24.50;99.90
22852;DHT22;11592;45.460;9.240;2023-07-13T05:59:36;24.60;99.90
22852;DHT22;11592;45.460;9.240;2023-07-13T06:02:03;24.60;99.90
22852;DHT22;11592;45.460;9.240;2023-07-13T06:04:30;24.60;99.90
22852;DHT22;11592;45.460;9.240;2023-07-13T06:06:57;24.70;99.90
22852;DHT22;11592;45.460;9.240;2023-07-13T06:09:24;24.70;99.90
22852;DHT22;11592;45.460;9.240;2023-07-13T06:11:51;24.70;99.90
22852;DHT22;11592;45.460;9.240;2023-07-13T06:14:18;24.80;99.90
22852;DHT22;11592;45.460;9.240;2023-07-13T06:16:44;24.80;99.90
22852;DHT22;11592;45.460;9.240;2023-07-13T06:19:12;24.80;99.90
22852;DHT22;11592;45.460;9.240;2023-07-13T06:21:39;24.80;99.90
22852;DHT22;11592;45.460;9.240;2023-07-13T06:24:05;24.70;99.90
22852;DHT22;11592;45.460;9.240;2023-07-13T06:26:32;24.80;99.90
22852;DHT22;11592;45.460;9.240;2023-07-13T06:28:59;24.80;99.90
22852;DHT22;11592;45.460;9.240;2023-07-13T06:31:26;24.70;99.90
22852;DHT22;11592;45.460;9.240;2023-07-13T06:33:53;24.80;99.90
22852;DHT22;11592;45.460;9.240;2023-07-13T06:36:20;24.90;99.90
22852;DHT22;11592;45.460;9.240;2023-07-13T06:38:46;25.00;99.90
22852;DHT22;11592;45.460;9.240;2023-07-13T06:41:13;25.00;99.90
22852;DHT22;11592;45.460;9.240;2023-07-13T06:43:41;25.00;99.90
22852;DHT22;11592;45.460;9.240;2023-07-13T06:46:08;25.10;99.90
22852;DHT22;11592;45.460;9.240;2023-07-13T06:48:34;25.20;99.90
22852;DHT22;11592;45.460;9.240;2023-07-13T06:51:02;25.10;99.90
22852;DHT22;11592;45.460;9.240;2023-07-13T06:53:29;25.00;99.90
22852;DHT22;11592;45.460;9.240;2023-07-13T06:55:56;24.90;99.90
22852;DHT22;11592;45.460;9.240;2023-07-13T06:58:23;25.00;99.90
22852;DHT22;11592;45.460;9.240;2023-07-13T07:00:51;25.10;99.90
22852;DHT22;11592;45.460;9.240;2023-07-13T07:03:19;25.30;99.90
22852;DHT22;11592;45.460;9.240;2023-07-13T07:05:46;25.20;99.90
22852;DHT22;11592;45.460;9.240;2023-07-13T07:08:13;25.30;99.90
22852;DHT22;11592;45.460;9.240;2023-07-13T07:10:40;25.50;99.90
22852;DHT22;11592;45.460;9.240;2023-07-13T07:13:07;25.70;99.90
22852;DHT22;11592;45.460;9.240;2023-07-13T07:15:35;25.80;99.90
22852;DHT22;11592;45.460;9.240;2023-07-13T07:18:02;25.80;99.90
22852;DHT22;11592;45.460;9.240;2023-07-13T07:20:29;25.80;99.90
22852;DHT22;11592;45.460;9.240;2023-07-13T07:22:59;25.90;99.90
22852;DHT22;11592;45.460;9.240;2023-07-13T07:25:26;26.00;99.90
22852;DHT22;11592;45.460;9.240;2023-07-13T07:27:53;26.10;99.90
22852;DHT22;11592;45.460;9.240;2023-07-13T07:30:22;26.10;99.90
22852;DHT22;11592;45.460;9.240;2023-07-13T07:32:52;26.10;99.90
22852;DHT22;11592;45.460;9.240;2023-07-13T07:35:23;26.00;99.90
22852;DHT22;11592;45.460;9.240;2023-07-13T07:37:50;25.90;99.90
22852;DHT22;11592;45.460;9.240;2023-07-13T07:40:18;25.90;99.90
22852;DHT22;11592;45.460;9.240;2023-07-13T07:42:48;25.90;99.90
22852;DHT22;11592;45.460;9.240;2023-07-13T07:45:15;25.90;99.90
22852;DHT22;11592;45.460;9.240;2023-07-13T07:47:42;25.80;99.90
22852;DHT22;11592;45.460;9.240;2023-07-13T07:50:09;26.00;99.90
22852;DHT22;11592;45.460;9.240;2023-07-13T07:52:36;26.00;99.90
22852;DHT22;11592;45.460;9.240;2023-07-13T07:55:05;26.00;99.90
22852;DHT22;11592;45.460;9.240;2023-07-13T07:57:35;25.80;99.90
22852;DHT22;11592;45.460;9.240;2023-07-13T08:00:06;25.90;99.90
22852;DHT22;11592;45.460;9.240;2023-07-13T08:02:37;25.90;99.90
22852;DHT22;11592;45.460;9.240;2023-07-13T08:05:07;26.00;99.90
22852;DHT22;11592;45.460;9.240;2023-07-13T08:07:38;26.10;99.90
22852;DHT22;11592;45.460;9.240;2023-07-13T08:10:07;26.30;99.90
22852;DHT22;11592;45.460;9.240;2023-07-13T08:12:35;26.40;99.90
22852;DHT22;11592;45.460;9.240;2023-07-13T08:15:06;26.50;99.90
22852;DHT22;11592;45.460;9.240;2023-07-13T08:17:35;26.50;99.90
22852;DHT22;11592;45.460;9.240;2023-07-13T08:20:04;26.50;99.90
22852;DHT22;11592;45.460;9.240;2023-07-13T08:22:31;26.70;99.90
22852;DHT22;11592;45.460;9.240;2023-07-13T08:24:59;26.80;99.90
22852;DHT22;11592;45.460;9.240;2023-07-13T08:27:27;26.80;99.90
22852;DHT22;11592;45.460;9.240;2023-07-13T08:29:55;26.90;99.90
22852;DHT22;11592;45.460;9.240;2023-07-13T08:32:22;26.90;99.90
22852;DHT22;11592;45.460;9.240;2023-07-13T08:34:50;27.00;99.90
22852;DHT22;11592;45.460;9.240;2023-07-13T08:37:18;26.90;99.90
22852;DHT22;11592;45.460;9.240;2023-07-13T08:39:45;27.00;99.90
22852;DHT22;11592;45.460;9.240;2023-07-13T08:42:36;27.00;99.90
22852;DHT22;11592;45.460;9.240;2023-07-13T08:48:28;27.10;99.90
22852;DHT22;11592;45.460;9.240;2023-07-13T08:51:02;27.10;99.90
22852;DHT22;11592;45.460;9.240;2023-07-13T08:53:37;27.20;99.90
22852;DHT22;11592;45.460;9.240;2023-07-13T08:56:13;27.30;99.90
22852;DHT22;11592;45.460;9.240;2023-07-13T08:58:44;27.40;99.90
22852;DHT22;11592;45.460;9.240;2023-07-13T09:04:48;27.30;99.90
22852;DHT22;11592;45.460;9.240;2023-07-13T09:10:28;27.40;99.90
22852;DHT22;11592;45.460;9.240;2023-07-13T09:13:33;27.50;99.90
22852;DHT22;11592;45.460;9.240;2023-07-13T09:16:04;27.60;99.90
22852;DHT22;11592;45.460;9.240;2023-07-13T09:21:12;27.40;99.90
22852;DHT22;11592;45.460;9.240;2023-07-13T09:23:40;27.40;99.90
22852;DHT22;11592;45.460;9.240;2023-07-13T09:26:14;27.40;99.90
22852;DHT22;11592;45.460;9.240;2023-07-13T09:28:44;27.50;99.90
22852;DHT22;11592;45.460;9.240;2023-07-13T09:31:20;27.50;99.90
22852;DHT22;11592;45.460;9.240;2023-07-13T09:33:49;27.60;99.90
22852;DHT22;11592;45.460;9.240;2023-07-13T09:38:44;27.90;99.90
22852;DHT22;11592;45.460;9.240;2023-07-13T09:46:55;28.10;99.90
22852;DHT22;11592;45.460;9.240;2023-07-13T09:49:33;27.70;99.90
22852;DHT22;11592;45.460;9.240;2023-07-13T09:52:06;27.60;99.90
22852;DHT22;11592;45.460;9.240;2023-07-13T09:54:37;27.70;99.90
22852;DHT22;11592;45.460;9.240;2023-07-13T09:57:13;27.80;99.90
22852;DHT22;11592;45.460;9.240;2023-07-13T09:59:45;28.10;99.90
22852;DHT22;11592;45.460;9.240;2023-07-13T10:02:33;28.40;99.90
22852;DHT22;11592;45.460;9.240;2023-07-13T10:05:06;28.50;99.90
22852;DHT22;11592;45.460;9.240;2023-07-13T10:07:39;28.40;99.90
22852;DHT22;11592;45.460;9.240;2023-07-13T10:10:17;28.50;99.90
22852;DHT22;11592;45.460;9.240;2023-07-13T10:12:46;28.60;99.90
22852;DHT22;11592;45.460;9.240;2023-07-13T10:15:24;28.70;99.90
22852;DHT22;11592;45.460;9.240;2023-07-13T10:17:54;28.80;99.90
22852;DHT22;11592;45.460;9.240;2023-07-13T10:20:22;28.70;99.90
22852;DHT22;11592;45.460;9.240;2023-07-13T10:23:27;28.70;99.90
22852;DHT22;11592;45.460;9.240;2023-07-13T10:25:46;28.50;99.90
22852;DHT22;11592;45.460;9.240;2023-07-13T10:28:36;28.20;99.90
22852;DHT22;11592;45.460;9.240;2023-07-13T10:31:10;28.20;99.90
22852;DHT22;11592;45.460;9.240;2023-07-13T10:33:38;28.10;99.90
22852;DHT22;11592;45.460;9.240;2023-07-13T10:36:26;28.50;99.90
22852;DHT22;11592;45.460;9.240;2023-07-13T10:38:55;28.70;99.90
22852;DHT22;11592;45.460;9.240;2023-07-13T10:41:25;29.10;99.90
22852;DHT22;11592;45.460;9.240;2023-07-13T10:43:54;29.10;99.90
22852;DHT22;11592;45.460;9.240;2023-07-13T10:46:25;29.20;99.90
22852;DHT22;11592;45.460;9.240;2023-07-13T10:49:01;29.30;99.90
22852;DHT22;11592;45.460;9.240;2023-07-13T10:51:30;29.70;99.90
22852;DHT22;11592;45.460;9.240;2023-07-13T10:54:14;29.50;99.90
22852;DHT22;11592;45.460;9.240;2023-07-13T10:56:46;29.70;99.90
22852;DHT22;11592;45.460;9.240;2023-07-13T10:59:27;29.90;99.90
22852;DHT22;11592;45.460;9.240;2023-07-13T11:01:58;29.90;99.90
22852;DHT22;11592;45.460;9.240;2023-07-13T11:04:46;29.90;99.90
22852;DHT22;11592;45.460;9.240;2023-07-13T11:07:26;29.70;99.90
22852;DHT22;11592;45.460;9.240;2023-07-13T11:09:59;29.60;99.90
22852;DHT22;11592;45.460;9.240;2023-07-13T11:15:15;30.10;99.90
22852;DHT22;11592;45.460;9.240;2023-07-13T11:17:56;30.40;99.90
22852;DHT22;11592;45.460;9.240;2023-07-13T11:20:38;30.50;99.90
22852;DHT22;11592;45.460;9.240;2023-07-13T11:25:39;30.80;99.90
22852;DHT22;11592;45.460;9.240;2023-07-13T11:36:13;31.70;99.90
22852;DHT22;11592;45.460;9.240;2023-07-13T11:38:43;31.90;99.90
22852;DHT22;11592;45.460;9.240;2023-07-13T11:41:22;31.50;99.90
22852;DHT22;11592;45.460;9.240;2023-07-13T11:43:50;31.50;99.90
22852;DHT22;11592;45.460;9.240;2023-07-13T11:46:26;31.70;99.90
22852;DHT22;11592;45.460;9.240;2023-07-13T11:48:54;31.80;99.90
22852;DHT22;11592;45.460;9.240;2023-07-13T11:53:50;31.80;99.90
22852;DHT22;11592;45.460;9.240;2023-07-13T11:56:18;31.90;99.90
22852;DHT22;11592;45.460;9.240;2023-07-13T11:58:51;31.60;99.90
22852;DHT22;11592;45.460;9.240;2023-07-13T12:01:28;31.40;99.90
22852;DHT22;11592;45.460;9.240;2023-07-13T12:04:04;31.40;99.90
22852;DHT22;11592;45.460;9.240;2023-07-13T12:06:34;31.70;99.90
22852;DHT22;11592;45.460;9.240;2023-07-13T12:09:13;32.00;99.90
22852;DHT22;11592;45.460;9.240;2023-07-13T12:11:43;32.00;99.90
22852;DHT22;11592;45.460;9.240;2023-07-13T12:14:17;32.00;99.90
22852;DHT22;11592;45.460;9.240;2023-07-13T12:16:47;32.20;99.90
22852;DHT22;11592;45.460;9.240;2023-07-13T12:19:27;31.90;99.90
22852;DHT22;11592;45.460;9.240;2023-07-13T12:21:56;32.00;99.90
22852;DHT22;11592;45.460;9.240;2023-07-13T12:24:24;32.30;99.90
22852;DHT22;11592;45.460;9.240;2023-07-13T12:27:00;32.90;99.90
22852;DHT22;11592;45.460;9.240;2023-07-13T12:29:28;33.10;99.90
22852;DHT22;11592;45.460;9.240;2023-07-13T12:31:55;33.30;99.90
22852;DHT22;11592;45.460;9.240;2023-07-13T12:34:25;32.90;99.90
22852;DHT22;11592;45.460;9.240;2023-07-13T12:36:58;33.00;99.90
22852;DHT22;11592;45.460;9.240;2023-07-13T12:39:35;32.90;99.90
22852;DHT22;11592;45.460;9.240;2023-07-13T12:42:26;32.70;99.90
22852;DHT22;11592;45.460;9.240;2023-07-13T12:47:25;32.20;99.90
22852;DHT22;11592;45.460;9.240;2023-07-13T12:49:58;32.10;99.90
22852;DHT22;11592;45.460;9.240;2023-07-13T12:52:31;32.30;99.90
22852;DHT22;11592;45.460;9.240;2023-07-13T12:55:17;32.50;99.90
22852;DHT22;11592;45.460;9.240;2023-07-13T12:57:53;32.50;99.90
22852;DHT22;11592;45.460;9.240;2023-07-13T13:00:24;32.50;99.90
22852;DHT22;11592;45.460;9.240;2023-07-13T13:02:54;32.20;99.90
22852;DHT22;11592;45.460;9.240;2023-07-13T13:05:34;32.30;99.90
22852;DHT22;11592;45.460;9.240;2023-07-13T13:08:00;32.20;99.90
22852;DHT22;11592;45.460;9.240;2023-07-13T13:10:27;32.30;99.90
22852;DHT22;11592;45.460;9.240;2023-07-13T13:12:55;32.20;99.90
22852;DHT22;11592;45.460;9.240;2023-07-13T13:15:22;32.30;99.90
22852;DHT22;11592;45.460;9.240;2023-07-13T13:17:50;32.50;99.90
22852;DHT22;11592;45.460;9.240;2023-07-13T13:20:21;32.90;99.90
22852;DHT22;11592;45.460;9.240;2023-07-13T13:22:48;33.30;99.90
22852;DHT22;11592;45.460;9.240;2023-07-13T13:25:15;33.30;99.90
22852;DHT22;11592;45.460;9.240;2023-07-13T13:27:43;33.10;99.90
22852;DHT22;11592;45.460;9.240;2023-07-13T13:30:14;33.10;99.90
22852;DHT22;11592;45.460;9.240;2023-07-13T13:32:44;33.60;99.90
22852;DHT22;11592;45.460;9.240;2023-07-13T13:35:16;34.20;99.90
22852;DHT22;11592;45.460;9.240;2023-07-13T13:37:44;34.60;99.90
22852;DHT22;11592;45.460;9.240;2023-07-13T13:40:16;34.90;99.90
22852;DHT22;11592;45.460;9.240;2023-07-13T13:42:43;34.90;99.90
22852;DHT22;11592;45.460;9.240;2023-07-13T13:45:10;34.30;99.90
22852;DHT22;11592;45.460;9.240;2023-07-13T13:47:39;33.60;99.90
22852;DHT22;11592;45.460;9.240;2023-07-13T13:50:22;33.40;99.90
22852;DHT22;11592;45.460;9.240;2023-07-13T13:52:49;33.70;99.90
22852;DHT22;11592;45.460;9.240;2023-07-13T13:55:18;34.30;99.90
22852;DHT22;11592;45.460;9.240;2023-07-13T13:57:46;34.50;99.90
22852;DHT22;11592;45.460;9.240;2023-07-13T14:00:15;34.50;99.90
22852;DHT22;11592;45.460;9.240;2023-07-13T14:02:45;34.30;99.90
22852;DHT22;11592;45.460;9.240;2023-07-13T14:05:22;33.80;99.90
22852;DHT22;11592;45.460;9.240;2023-07-13T14:07:49;34.20;99.90
22852;DHT22;11592;45.460;9.240;2023-07-13T14:10:18;35.10;99.90
22852;DHT22;11592;45.460;9.240;2023-07-13T14:12:47;35.60;99.90
22852;DHT22;11592;45.460;9.240;2023-07-13T14:15:27;35.10;99.90
22852;DHT22;11592;45.460;9.240;2023-07-13T14:17:54;34.90;99.90
22852;DHT22;11592;45.460;9.240;2023-07-13T14:20:23;34.20;99.90
22852;DHT22;11592;45.460;9.240;2023-07-13T14:22:53;33.80;99.90
22852;DHT22;11592;45.460;9.240;2023-07-13T14:25:22;33.30;99.90
22852;DHT22;11592;45.460;9.240;2023-07-13T14:27:53;33.00;99.90
22852;DHT22;11592;45.460;9.240;2023-07-13T14:30:22;32.60;99.90
22852;DHT22;11592;45.460;9.240;2023-07-13T14:32:49;32.40;99.90
22852;DHT22;11592;45.460;9.240;2023-07-13T14:35:18;32.30;99.90
22852;DHT22;11592;45.460;9.240;2023-07-13T14:37:47;33.00;99.90
22852;DHT22;11592;45.460;9.240;2023-07-13T14:40:16;33.60;99.90
22852;DHT22;11592;45.460;9.240;2023-07-13T14:42:43;33.50;99.90
22852;DHT22;11592;45.460;9.240;2023-07-13T14:45:15;33.20;99.90
22852;DHT22;11592;45.460;9.240;2023-07-13T14:47:42;33.10;99.90
22852;DHT22;11592;45.460;9.240;2023-07-13T14:50:23;32.80;99.90
22852;DHT22;11592;45.460;9.240;2023-07-13T14:52:51;32.50;99.90
22852;DHT22;11592;45.460;9.240;2023-07-13T14:55:18;32.10;99.90
22852;DHT22;11592;45.460;9.240;2023-07-13T14:57:46;32.00;99.90
22852;DHT22;11592;45.460;9.240;2023-07-13T15:02:51;32.00;99.90
22852;DHT22;11592;45.460;9.240;2023-07-13T15:05:22;32.50;99.90
22852;DHT22;11592;45.460;9.240;2023-07-13T15:07:52;33.40;99.90
22852;DHT22;11592;45.460;9.240;2023-07-13T15:10:23;33.90;99.90
22852;DHT22;11592;45.460;9.240;2023-07-13T15:12:52;34.00;99.90
22852;DHT22;11592;45.460;9.240;2023-07-13T15:15:19;34.30;99.90
22852;DHT22;11592;45.460;9.240;2023-07-13T15:17:47;34.50;99.90
22852;DHT22;11592;45.460;9.240;2023-07-13T15:20:26;34.60;99.90
22852;DHT22;11592;45.460;9.240;2023-07-13T15:22:58;34.60;99.90
22852;DHT22;11592;45.460;9.240;2023-07-13T15:25:27;34.60;99.90
22852;DHT22;11592;45.460;9.240;2023-07-13T15:27:55;34.70;99.90
22852;DHT22;11592;45.460;9.240;2023-07-13T15:30:26;34.80;99.90
22852;DHT22;11592;45.460;9.240;2023-07-13T15:32:56;34.90;99.90
22852;DHT22;11592;45.460;9.240;2023-07-13T15:35:26;34.80;99.90
22852;DHT22;11592;45.460;9.240;2023-07-13T15:37:54;34.80;99.90
22852;DHT22;11592;45.460;9.240;2023-07-13T15:40:23;34.60;99.90
22852;DHT22;11592;45.460;9.240;2023-07-13T15:42:50;34.50;99.90
22852;DHT22;11592;45.460;9.240;2023-07-13T15:45:22;34.50;99.90
22852;DHT22;11592;45.460;9.240;2023-07-13T15:47:50;34.50;99.90
22852;DHT22;11592;45.460;9.240;2023-07-13T15:50:22;34.50;99.90
22852;DHT22;11592;45.460;9.240;2023-07-13T15:52:55;34.30;99.90
22852;DHT22;11592;45.460;9.240;2023-07-13T15:55:24;34.30;99.90
22852;DHT22;11592;45.460;9.240;2023-07-13T15:57:52;34.20;99.90
22852;DHT22;11592;45.460;9.240;2023-07-13T16:00:25;34.30;99.90
22852;DHT22;11592;45.460;9.240;2023-07-13T16:02:53;34.30;99.90
22852;DHT22;11592;45.460;9.240;2023-07-13T16:05:21;34.10;99.90
22852;DHT22;11592;45.460;9.240;2023-07-13T16:07:51;34.10;99.90
22852;DHT22;11592;45.460;9.240;2023-07-13T16:10:25;34.10;99.90
22852;DHT22;11592;45.460;9.240;2023-07-13T16:12:53;34.00;99.90
22852;DHT22;11592;45.460;9.240;2023-07-13T16:15:21;34.00;99.90
22852;DHT22;11592;45.460;9.240;2023-07-13T16:17:49;33.90;99.90
22852;DHT22;11592;45.460;9.240;2023-07-13T16:20:17;33.80;99.90
22852;DHT22;11592;45.460;9.240;2023-07-13T16:22:46;33.80;99.90
22852;DHT22;11592;45.460;9.240;2023-07-13T16:25:22;33.90;99.90
22852;DHT22;11592;45.460;9.240;2023-07-13T16:27:53;33.80;99.90
22852;DHT22;11592;45.460;9.240;2023-07-13T16:30:29;33.70;99.90
22852;DHT22;11592;45.460;9.240;2023-07-13T16:32:58;33.70;99.90
22852;DHT22;11592;45.460;9.240;2023-07-13T16:35:30;33.60;99.90
22852;DHT22;11592;45.460;9.240;2023-07-13T16:38:02;33.40;99.90
22852;DHT22;11592;45.460;9.240;2023-07-13T16:40:34;33.40;99.90
22852;DHT22;11592;45.460;9.240;2023-07-13T16:43:01;33.50;99.90
22852;DHT22;11592;45.460;9.240;2023-07-13T16:45:33;33.60;99.90
22852;DHT22;11592;45.460;9.240;2023-07-13T16:48:14;33.50;99.90
22852;DHT22;11592;45.460;9.240;2023-07-13T16:50:44;33.60;99.90
22852;DHT22;11592;45.460;9.240;2023-07-13T16:53:24;33.60;99.90
22852;DHT22;11592;45.460;9.240;2023-07-13T16:55:51;33.60;99.90
22852;DHT22;11592;45.460;9.240;2023-07-13T16:58:23;33.40;99.90
22852;DHT22;11592;45.460;9.240;2023-07-13T17:00:52;33.60;99.90
22852;DHT22;11592;45.460;9.240;2023-07-13T17:03:20;33.50;99.90
22852;DHT22;11592;45.460;9.240;2023-07-13T17:05:47;33.40;99.90
22852;DHT22;11592;45.460;9.240;2023-07-13T17:08:23;33.40;99.90
22852;DHT22;11592;45.460;9.240;2023-07-13T17:10:53;33.10;99.90
22852;DHT22;11592;45.460;9.240;2023-07-13T17:13:28;32.80;99.90
22852;DHT22;11592;45.460;9.240;2023-07-13T17:15:56;32.80;99.90
22852;DHT22;11592;45.460;9.240;2023-07-13T17:18:29;32.60;99.90
22852;DHT22;11592;45.460;9.240;2023-07-13T17:21:07;32.40;99.90
22852;DHT22;11592;45.460;9.240;2023-07-13T17:23:34;32.00;99.90
22852;DHT22;11592;45.460;9.240;2023-07-13T17:26:02;32.00;99.90
22852;DHT22;11592;45.460;9.240;2023-07-13T17:28:31;31.90;99.90
22852;DHT22;11592;45.460;9.240;2023-07-13T17:30:58;31.90;99.90
22852;DHT22;11592;45.460;9.240;2023-07-13T17:33:38;31.70;99.90
22852;DHT22;11592;45.460;9.240;2023-07-13T17:36:11;31.50;99.90
22852;DHT22;11592;45.460;9.240;2023-07-13T17:38:42;31.60;99.90
22852;DHT22;11592;45.460;9.240;2023-07-13T17:41:11;31.70;99.90
22852;DHT22;11592;45.460;9.240;2023-07-13T17:43:42;31.70;99.90
22852;DHT22;11592;45.460;9.240;2023-07-13T17:46:14;31.70;99.90
22852;DHT22;11592;45.460;9.240;2023-07-13T17:48:45;31.70;99.90
22852;DHT22;11592;45.460;9.240;2023-07-13T17:51:16;31.60;99.90
22852;DHT22;11592;45.460;9.240;2023-07-13T17:53:44;31.60;99.90
22852;DHT22;11592;45.460;9.240;2023-07-13T17:56:12;31.40;99.90
22852;DHT22;11592;45.460;9.240;2023-07-13T17:58:40;31.40;99.90
22852;DHT22;11592;45.460;9.240;2023-07-13T18:01:18;31.40;99.90
22852;DHT22;11592;45.460;9.240;2023-07-13T18:03:49;31.50;99.90
22852;DHT22;11592;45.460;9.240;2023-07-13T18:08:59;31.50;99.90
22852;DHT22;11592;45.460;9.240;2023-07-13T18:11:33;31.50;99.90
22852;DHT22;11592;45.460;9.240;2023-07-13T18:14:00;31.30;99.90
22852;DHT22;11592;45.460;9.240;2023-07-13T18:16:28;31.10;99.90
22852;DHT22;11592;45.460;9.240;2023-07-13T18:18:57;31.00;99.90
22852;DHT22;11592;45.460;9.240;2023-07-13T18:21:24;30.90;99.90
22852;DHT22;11592;45.460;9.240;2023-07-13T18:23:53;30.90;99.90
22852;DHT22;11592;45.460;9.240;2023-07-13T18:26:25;30.80;99.90
22852;DHT22;11592;45.460;9.240;2023-07-13T18:28:52;30.70;99.90
22852;DHT22;11592;45.460;9.240;2023-07-13T18:31:22;30.80;99.90
22852;DHT22;11592;45.460;9.240;2023-07-13T18:33:52;30.70;99.90
22852;DHT22;11592;45.460;9.240;2023-07-13T18:36:21;30.60;99.90
22852;DHT22;11592;45.460;9.240;2023-07-13T18:38:49;30.50;99.90
22852;DHT22;11592;45.460;9.240;2023-07-13T18:41:17;30.40;99.90
22852;DHT22;11592;45.460;9.240;2023-07-13T18:43:48;30.30;99.90
22852;DHT22;11592;45.460;9.240;2023-07-13T18:46:27;30.30;99.90
22852;DHT22;11592;45.460;9.240;2023-07-13T18:48:59;30.20;99.90
22852;DHT22;11592;45.460;9.240;2023-07-13T18:51:26;29.90;99.90
22852;DHT22;11592;45.460;9.240;2023-07-13T18:53:53;30.10;99.90
22852;DHT22;11592;45.460;9.240;2023-07-13T18:56:20;30.00;99.90
22852;DHT22;11592;45.460;9.240;2023-07-13T18:58:46;30.00;99.90
22852;DHT22;11592;45.460;9.240;2023-07-13T19:03:51;29.90;99.90
22852;DHT22;11592;45.460;9.240;2023-07-13T19:06:19;29.80;99.90
22852;DHT22;11592;45.460;9.240;2023-07-13T19:08:46;29.70;99.90
22852;DHT22;11592;45.460;9.240;2023-07-13T19:11:15;29.50;99.90
22852;DHT22;11592;45.460;9.240;2023-07-13T19:13:42;29.50;99.90
22852;DHT22;11592;45.460;9.240;2023-07-13T19:16:12;29.40;99.90
22852;DHT22;11592;45.460;9.240;2023-07-13T19:18:41;29.30;99.90
22852;DHT22;11592;45.460;9.240;2023-07-13T19:21:31;29.40;99.90
22852;DHT22;11592;45.460;9.240;2023-07-13T19:23:59;29.30;99.90
22852;DHT22;11592;45.460;9.240;2023-07-13T19:26:31;29.20;99.90
22852;DHT22;11592;45.460;9.240;2023-07-13T19:29:00;29.20;99.90
22852;DHT22;11592;45.460;9.240;2023-07-13T19:31:33;29.20;99.90
22852;DHT22;11592;45.460;9.240;2023-07-13T19:36:35;29.20;99.90
22852;DHT22;11592;45.460;9.240;2023-07-13T19:39:03;29.00;99.90
22852;DHT22;11592;45.460;9.240;2023-07-13T19:41:36;29.00;99.90
22852;DHT22;11592;45.460;9.240;2023-07-13T19:44:08;28.90;99.90
22852;DHT22;11592;45.460;9.240;2023-07-13T19:46:37;28.80;99.90
22852;DHT22;11592;45.460;9.240;2023-07-13T19:49:06;28.80;99.90
22852;DHT22;11592;45.460;9.240;2023-07-13T19:51:33;28.80;99.90
22852;DHT22;11592;45.460;9.240;2023-07-13T19:54:10;28.80;99.90
22852;DHT22;11592;45.460;9.240;2023-07-13T19:56:38;28.70;99.90
22852;DHT22;11592;45.460;9.240;2023-07-13T19:59:29;28.70;99.90
22852;DHT22;11592;45.460;9.240;2023-07-13T20:01:56;28.60;99.90
22852;DHT22;11592;45.460;9.240;2023-07-13T20:04:26;28.60;99.90
22852;DHT22;11592;45.460;9.240;2023-07-13T20:06:53;28.50;99.90
22852;DHT22;11592;45.460;9.240;2023-07-13T20:09:22;28.50;99.90
22852;DHT22;11592;45.460;9.240;2023-07-13T20:12:12;28.50;99.90